Tiempo atmosférico en la estación meteorológica de Escorca, Lluc, Illes Balears (490 m.)



Fecha
DESCASC
Temp. máxima en grados centígrados (hora)
DESCASC
Temp. mínima en grados centígrados (hora)
DESCASC
Temp. media en grados centígrados
DESCASC
Racha de viento máxima en m/sg (hora)
DESCASC
Velocidad máxima media en intervalos de 10 minutos(hora)
DESCASC
Precipitaciones diarias en mm
DESCASC
Precipitaciones de 00:00 a 06:00 en mm
DESCASC
Precipitaciones de 06:00 a 12:00 en mm
DESCASC
Precipitaciones de 12:00 a 18:00 en mm
DESCASC
Precipitaciones de 18:00 a 24:00 en mm
DESCASC
02-04-2020 14.1 (10:20) 7 (06:20) 10.6 7.78 (21:50) 2.78 (22:40) 39.6 0 7.3 19.7 12.6
01-04-2020 14.5 (14:30) 9.6 (22:50) 12.1 9.17 (05:30) 3.61 (04:50) 31.1 0 1.7 29.4 0
31-03-2020 12.3 (16:00) 10.2 (00:00) 11.3 11.11 (06:20) 3.89 (07:20) 3 0 0 3 0
30-03-2020 12.5 (11:50) 3.4 (00:00) 8 5.28 (23:40) 1.94 (22:20) 12 0 0 12 0
29-03-2020 17.1 (13:10) 2.6 (00:00) 9.9 4.72 (13:50) 1.11 (12:10) 0 0 0 0 0
28-03-2020 12.5 (15:00) 6.5 (00:00) 9.5 4.72 (12:30) 1.67 (16:50) 4.6 0.4 4.2 0 0
27-03-2020 11.2 (14:40) 0 (00:00) 5.6 8.33 (17:10) 1.67 (00:20) 0 0 0 0 0
26-03-2020 8.1 (09:40) 2.7 (00:00) 5.4 8.06 (03:40) 3.61 (03:40) 17.2 0 4.7 3.5 9
25-03-2020 10.3 (11:20) 2.4 (00:00) 6.4 6.94 (16:20) 2.22 (12:00) 0 0 0 0 0
24-03-2020 11.2 (00:50) 7 (00:00) 9.1 10 (16:10) 2.78 (05:00) 0.1 0 0 0 0.1
23-03-2020 15.9 (14:10) 9.4 (00:00) 12.6 8.33 (20:10) 2.78 (03:40) 0 0 0 0 0
22-03-2020 13.1 (14:40) 6.3 (05:40) 9.7 7.5 (12:20) 2.78 (12:50) 3.4 0 0.3 3 0.1
21-03-2020 14.2 (15:00) 7.6 (00:00) 10.9 7.22 (00:20) 2.5 (00:10) 0 0 0 0 0
20-03-2020 15 (14:00) 8.8 (00:00) 11.9 8.61 (23:00) 3.33 (11:30) 0 0 0 0 0
19-03-2020 15.5 (13:30) 6.1 (00:00) 10.8 5.28 (23:40) 1.67 (14:50) 0 0 0 0 0
18-03-2020 14.2 (14:40) 9.5 (00:00) 11.8 7.78 (06:50) 2.22 (06:50) 0 0 0 0 0
17-03-2020 12.8 (03:50) 11.3 (00:00) 12.1 13.06 (19:20) 5 (16:40) 0.2 0.1 0.1 0 0
16-03-2020 13.2 (16:50) 10.4 (00:00) 11.8 11.39 (14:50) 3.89 (12:20) 2.6 0 2.5 0 0.1
15-03-2020 16.9 (12:50) 3.3 (00:00) 10.1 8.89 (22:30) 3.89 (23:20) 0 0 0 0 0
14-03-2020 17.5 (12:50) 6.8 (00:00) 12.2 5.83 (03:00) 1.39 (02:50) 1.4 1.4 0 0 0
13-03-2020 17.9 (12:20) 6.7 (02:50) 12.3 6.67 (10:30) 2.22 (10:40) 0 0 0 0 0
12-03-2020 24.7 (11:40) 5.2 (00:00) 15 6.11 (15:50) 2.22 (10:30) 0 0 0 0 0
11-03-2020 21.4 (13:10) 4.1 (00:00) 12.7 3.61 (12:50) 0.83 (12:50) 0 0 0 0 0
10-03-2020 15.9 (15:30) 6.4 (00:00) 11.1 5.28 (12:00) 1.67 (12:00) 0 0 0 0 0
09-03-2020 13.4 (11:20) 3.6 (00:00) 8.5 13.33 (07:50) 2.5 (10:20) 0 0 0 0 0
08-03-2020 16.5 (12:40) 3 (00:00) 9.8 7.22 (09:40) 2.5 (09:40) 0 0 0 0 0
07-03-2020 12.3 (12:30) 2.4 (00:00) 7.4 11.39 (00:20) 2.5 (01:20) 0 0 0 0 0
06-03-2020 13.4 (10:30) 7.3 (00:00) 10.3 15 (20:40) 3.33 (18:40) 0.2 0.1 0 0.1 0
05-03-2020 19.4 (12:20) 7.4 (00:00) 13.4 14.44 (13:30) 4.72 (10:50) 0 0 0 0 0

Gráficas

Temp. máximas Temp. mínimas Temp. medias Precipitaciones Rachas de viento máximas Velocidades máximas media en intervalos de 10 minutos

Datos horarios

Fecha y hora oficial Temperatura (ºC) Velocidad del viento (km/h) Dirección del viento Racha (km/h) Dirección de racha Precipitación (mm) Presión (hPa) Tendencia (hPa) Humedad (%)
2020-04-03 23:00:00 4.4 0 Calma -- -- 0 -- -- 92
2020-04-03 22:00:00 5.1 0 Calma -- -- 0 -- -- 90
2020-04-03 21:00:00 6.3 0 Calma -- -- 0 -- -- 85
2020-04-03 20:00:00 8.2 0 Calma 4 Norte 0 -- -- 79
2020-04-03 19:00:00 10.5 0 Calma 17 Sudoeste 0 -- -- 59
2020-04-03 18:00:00 11.8 2 Nordeste 13 Sudoeste 0 -- -- 54
2020-04-03 17:00:00 12.5 2 Este 14 Norte 0 -- -- 54
2020-04-03 16:00:00 12.1 0 Calma 10 Sudoeste 0 -- -- 73
2020-04-03 15:00:00 10.9 4 Este 19 Norte 0 -- -- 80
2020-04-03 14:00:00 10.4 4 Nordeste 17 Sur 0 -- -- 82
2020-04-03 13:00:00 10.2 3 Sudeste 18 Norte 0 -- -- 84
2020-04-03 12:00:00 10.2 5 Este 23 Nordeste 0 -- -- 80
2020-04-03 11:00:00 10 0 Calma 25 Sudoeste 0 -- -- 82
2020-04-03 10:00:00 9.6 3 Norte 23 Este 0 -- -- 82
2020-04-03 09:00:00 9.3 0 Calma 28 Este 0 -- -- 83
2020-04-03 08:00:00 9.1 4 Nordeste 26 Nordeste 0 -- -- 86
2020-04-03 07:00:00 8.8 5 Nordeste 26 Norte 0 -- -- 87
2020-04-03 06:00:00 8.9 9 Nordeste 29 Este 0 -- -- 87
2020-04-03 05:00:00 8.6 3 Sudeste 24 Nordeste 0 -- -- 91
2020-04-03 04:00:00 8.8 3 Sur 26 Oeste 0 -- -- 97
2020-04-03 03:00:00 8.8 2 Nordeste 26 Este 3 -- -- 98
2020-04-03 02:00:00 8.7 8 Nordeste 22 Nordeste 2.2 -- -- 97
2020-04-03 01:00:00 8.6 0 Calma 16 Norte 0.9 -- -- 97
2020-04-03 00:00:00 8.6 5 Este 24 Noroeste 0 -- -- 97
2020-04-02 23:00:00 9.1 5 Nordeste 22 Este 0.2 -- -- 98
2020-04-02 22:00:00 9.5 0 Calma 28 Nordeste 1.6 -- -- 98
2020-04-02 21:00:00 9.6 4 Nordeste 23 Nordeste 2.7 -- -- 98
2020-04-02 20:00:00 9.7 6 Nordeste 17 Sudeste 4.7 -- -- 97
2020-04-02 19:00:00 10 0 Calma 14 Norte 3.4 -- -- 96
2020-04-02 18:00:00 10.1 0 Calma 12 Sudoeste 3.4 -- -- 97
2020-04-02 17:00:00 10.2 0 Calma 13 Oeste 2.4 -- -- 94
2020-04-02 16:00:00 9.4 0 Calma 15 Nordeste 3.8 -- -- 96
2020-04-02 15:00:00 9.8 0 Calma -- -- 0.2 -- -- 97
2020-04-02 14:00:00 8.7 0 Calma 6 Nordeste 3 -- -- 97
2020-04-02 13:00:00 8.4 0 Calma -- -- -- -- -- 94
2020-04-02 12:00:00 11.3 0 Calma 6 Nordeste 7.3 -- -- 91
2020-04-02 11:00:00 13.1 0 Calma 11 Este 0 -- -- 84
2020-04-02 10:00:00 13.6 0 Calma 5 Oeste 0 -- -- 84
2020-04-02 09:00:00 9.4 0 Calma -- -- 0 -- -- 98
2020-04-02 08:00:00 8.2 0 Calma 13 Sur 0 -- -- 98
2020-04-02 07:00:00 7.2 0 Calma -- -- 0 -- -- 98
2020-04-02 06:00:00 7.4 0 Calma -- -- 0 -- -- 97
2020-04-02 05:00:00 8.3 0 Calma 13 Sur 0 -- -- 97
2020-04-02 04:00:00 8 0 Calma -- -- 0 -- -- 97
2020-04-02 03:00:00 8.4 0 Calma 8 Este 0 -- -- 97
2020-04-02 02:00:00 8.9 0 Calma 17 Sur 0 -- -- 96
2020-04-02 01:00:00 10 0 Calma 18 Sudoeste 0 -- -- 96
2020-04-02 00:00:00 10.1 0 Calma 19 Sur 0 -- -- 96
2020-04-01 23:00:00 9.9 0 Calma 11 Este 0 -- -- 96
2020-04-01 22:00:00 10.8 0 Calma 7 Este 0 -- -- 94
2020-04-01 21:00:00 10.8 0 Calma 14 Oeste 0 -- -- 96
2020-04-01 20:00:00 12.2 2 Sur 14 Sur 0 -- -- 92
2020-04-01 19:00:00 12.7 0 Calma -- -- 0 -- -- 96
2020-04-01 18:00:00 12.7 0 Calma -- -- 1.9 -- -- 96
2020-04-01 17:00:00 11.9 0 Calma 9 Sudoeste 11.2 -- -- 97
2020-04-01 16:00:00 12.8 0 Calma 10 Sudeste 1 -- -- 94
2020-04-01 15:00:00 14.2 0 Calma 14 Sudeste 0 -- -- 92
2020-04-01 14:00:00 12.7 6 Sudeste 23 Sudoeste 12.7 -- -- 90
2020-04-01 13:00:00 12.7 4 Sudeste 17 Sudeste 2.6 -- -- 96
2020-04-01 12:00:00 12.2 3 Sudeste 18 Sudeste 0.4 -- -- 96
2020-04-01 11:00:00 11.9 5 Sudeste 18 Sudeste 0.3 -- -- 97
2020-04-01 10:00:00 11.6 4 Sudeste 17 Este 0.9 -- -- 96
2020-04-01 09:00:00 11.3 5 Sudeste 21 Sudeste 0.1 -- -- 95
2020-04-01 08:00:00 11.1 6 Sudeste 25 Sudeste 0 -- -- 95
2020-04-01 07:00:00 11 7 Sudeste 27 Sur 0 -- -- 93
2020-04-01 06:00:00 11 9 Sudeste 33 Sur 0 -- -- 92
2020-04-01 05:00:00 11.1 11 Sudeste 32 Sudeste 0 -- -- 92
2020-04-01 04:00:00 11.1 10 Sudeste 26 Sudeste 0 -- -- 93
2020-04-01 03:00:00 11.2 8 Sudeste 27 Sudeste 0 -- -- 94
2020-04-01 02:00:00 11.3 8 Sudeste 27 Sudoeste 0 -- -- 96
2020-04-01 01:00:00 11.3 8 Sudeste 28 Sur 0 -- -- 97
2020-04-01 00:00:00 11.3 9 Sudeste 28 Sudeste 0 -- -- 97
2020-03-31 23:00:00 11.2 8 Sur 24 Este 0 -- -- 97
2020-03-31 22:00:00 11.3 8 Este 27 Este 0 -- -- 98
2020-03-31 21:00:00 11.4 8 Sudeste 26 Sudeste 0 -- -- 98
2020-03-31 20:00:00 11.4 10 Sudeste 28 Este 0 -- -- 98
2020-03-31 19:00:00 11.4 9 Sudeste 33 Sudeste 0 -- -- 97
2020-03-31 18:00:00 11.5 9 Sudeste 29 Sudeste 0.1 -- -- 95
2020-03-31 17:00:00 12 4 Sudeste 22 Sudeste 2.3 -- -- 94
2020-03-31 16:00:00 11.9 8 Sudeste 24 Sudeste 0.5 -- -- 91
2020-03-31 15:00:00 12.1 6 Sudeste 23 Sudeste 0.1 -- -- 89
2020-03-31 14:00:00 12 9 Sudeste 29 Sur 0 -- -- 88
2020-03-31 13:00:00 11.4 10 Sudeste 35 Sur 0 -- -- 90
2020-03-31 12:00:00 11.5 10 Sudeste 31 Sur 0 -- -- 89
2020-03-31 11:00:00 11.2 12 Sudeste 37 Este 0 -- -- 89
2020-03-31 10:00:00 11 11 Sudeste 36 Sudeste 0 -- -- 90
2020-03-31 09:00:00 10.5 10 Sudeste 30 Sur 0 -- -- 92
2020-03-31 08:00:00 10.4 13 Este 36 Sudeste 0 -- -- 92
2020-03-31 07:00:00 10.4 12 Este 40 Sur 0 -- -- 91
2020-03-31 06:00:00 10.5 13 Sudeste 39 Sudeste 0 -- -- 88
2020-03-31 05:00:00 10.3 9 Sudeste 24 Sur 0 -- -- 90
2020-03-31 04:00:00 10.3 5 Sudeste 27 Sur 0 -- -- 91
2020-03-31 03:00:00 10.3 7 Sudeste 26 Sudeste 0 -- -- 92
2020-03-31 02:00:00 10.4 8 Sudeste 30 Sudeste 0 -- -- 93
2020-03-31 01:00:00 10.3 7 Sudeste 21 Este 0 -- -- 89
2020-03-31 00:00:00 10.6 5 Sudeste 19 Sudeste 0 -- -- 93
2020-03-30 23:00:00 10.7 5 Sudeste 18 Sur 0 -- -- 94
2020-03-30 22:00:00 10.7 5 Sudeste 14 Sudeste 0 -- -- 95
2020-03-30 21:00:00 10.1 5 Sur 18 Sur 0 -- -- 95
2020-03-30 20:00:00 11 0 Calma 11 Sudoeste 0 -- -- 94
2020-03-30 19:00:00 11.6 0 Calma 10 Este 0 -- -- 92
2020-03-30 18:00:00 11.4 0 Calma 4 Sudoeste 0 -- -- 95
2020-03-30 17:00:00 11.2 0 Calma -- -- 0 -- -- 94
2020-03-30 16:00:00 11.2 0 Calma 10 Este 0.4 -- -- 93
2020-03-30 15:00:00 11.3 0 Calma 18 Sur 6.5 -- -- 92
2020-03-30 14:00:00 11.5 0 Calma 13 Sudeste 2.9 -- -- 90
2020-03-30 13:00:00 11.6 3 Sudeste 14 Sudeste 2.2 -- -- 90
2020-03-30 12:00:00 12.3 3 Sudeste 18 Sudeste 0 -- -- 85
2020-03-30 11:00:00 11.9 5 Sudeste 14 Sur 0 -- -- 83
2020-03-30 10:00:00 10.2 3 Sudeste 10 Sudeste 0 -- -- 85
2020-03-30 09:00:00 6.5 0 Calma -- -- 0 -- -- 97
2020-03-30 08:00:00 4.3 0 Calma -- -- 0 -- -- 96
2020-03-30 07:00:00 3.7 0 Calma -- -- 0 -- -- 96
2020-03-30 06:00:00 3.5 0 Calma -- -- 0 -- -- 94
2020-03-30 05:00:00 3.6 0 Calma -- -- 0 -- -- 94
2020-03-30 04:00:00 3.5 0 Calma -- -- 0 -- -- 93
2020-03-30 03:00:00 3.9 0 Calma -- -- 0 -- -- 91
2020-03-30 02:00:00 4.5 0 Calma -- -- 0 -- -- 90
2020-03-30 01:00:00 5.1 0 Calma -- -- 0 -- -- 88
2020-03-30 00:00:00 6 0 Calma -- -- 0 -- -- 85
2020-03-29 23:00:00 6.6 0 Calma -- -- 0 -- -- 84
2020-03-29 22:00:00 7.4 0 Calma -- -- 0 -- -- 81
2020-03-29 21:00:00 8.5 0 Calma 0 Calma 0 -- -- 77
2020-03-29 20:00:00 11 0 Calma 5 Sudoeste 0 -- -- 68
2020-03-29 19:00:00 13.6 0 Calma 12 Sur 0 -- -- 60
2020-03-29 18:00:00 16 3 Sudoeste 11 Sudoeste 0 -- -- 47
2020-03-29 17:00:00 15.9 0 Calma 12 Sur 0 -- -- 44
2020-03-29 16:00:00 16.2 2 Sur 13 Sudeste 0 -- -- 50
2020-03-29 15:00:00 15.9 2 Sur 15 Sudeste 0 -- -- 47
2020-03-29 14:00:00 15.6 4 Sudeste 17 Sudeste 0 -- -- 47
2020-03-29 13:00:00 16.9 3 Sudeste 15 Sudeste 0 -- -- 41
2020-03-29 12:00:00 16.2 2 Sur 14 Sudeste 0 -- -- 45
2020-03-29 11:00:00 12.7 0 Calma 6 Sur 0 -- -- --
2020-03-29 10:00:00 9.3 0 Calma -- -- 0 -- -- 91
2020-03-29 09:00:00 4.9 0 Calma -- -- 0 -- -- 97
2020-03-29 08:00:00 2.6 0 Calma -- -- 0 -- -- 96
2020-03-29 07:00:00 2.9 0 Calma -- -- 0 -- -- 95
2020-03-29 06:00:00 3.3 0 Calma -- -- 0 -- -- 95
2020-03-29 05:00:00 4 0 Calma -- -- 0 -- -- 94
2020-03-29 03:00:00 5.8 0 Calma -- -- 0 -- -- 94
2020-03-29 01:00:00 6.5 0 Calma -- -- 0 -- -- 94
2020-03-29 00:00:00 7.1 0 Calma -- -- 0 -- -- 94
2020-03-28 23:00:00 7.1 0 Calma -- -- 0 -- -- 93
2020-03-28 22:00:00 7.5 0 Calma -- -- 0 -- -- 90
2020-03-28 21:00:00 8.3 0 Calma -- -- 0 -- -- 88
2020-03-28 20:00:00 9.3 0 Calma -- -- 0 -- -- 86
2020-03-28 19:00:00 9.8 0 Calma -- -- 0 -- -- 81
2020-03-28 18:00:00 10.9 0 Calma 6 Sudoeste 0 -- -- 81
2020-03-28 17:00:00 11.2 2 Sudoeste 16 Sudoeste 0 -- -- 79
2020-03-28 16:00:00 -- 0 Calma 15 Este 0 -- -- --
2020-03-28 15:00:00 12.5 0 Calma 12 Nordeste 0 -- -- 69
2020-03-28 14:00:00 11.6 0 Calma 15 Norte 0 -- -- 73
2020-03-28 13:00:00 11.7 5 Nordeste 17 Este 0 -- -- 68
2020-03-28 12:00:00 11.1 2 Sudoeste 8 Oeste 0 -- -- 84
2020-03-28 11:00:00 9.1 2 Oeste 10 Oeste 0.1 -- -- 92
2020-03-28 10:00:00 8.2 0 Calma 13 Norte 3.8 -- -- 96
2020-03-28 09:00:00 7.7 0 Calma 9 Sudeste 0.2 -- -- 93
2020-03-28 08:00:00 7.5 0 Calma 7 Sudeste 0.1 -- -- 95
2020-03-28 07:00:00 7.1 0 Calma -- -- 0 -- -- 95
2020-03-28 06:00:00 6.6 0 Calma -- -- 0 -- -- 95
2020-03-28 05:00:00 6.7 0 Calma -- -- 0.1 -- -- 94
2020-03-28 04:00:00 6.8 0 Calma 4 Oeste 0.3 -- -- 92
2020-03-28 03:00:00 7 0 Calma 6 Norte 0 -- -- 90
2020-03-28 02:00:00 7.1 0 Calma 5 Este 0 -- -- 87
2020-03-28 01:00:00 7.2 0 Calma 8 Nordeste 0 -- -- 84
2020-03-28 00:00:00 7.1 0 Calma 8 Oeste 0 -- -- 84
2020-03-27 23:00:00 7.1 0 Calma 10 Este 0 -- -- 84
2020-03-27 22:00:00 7.1 3 Este 15 Nordeste 0 -- -- 81
2020-03-27 21:00:00 7.3 0 Calma 12 Este 0 -- -- 80
2020-03-27 20:00:00 7.3 0 Calma 14 Norte 0 -- -- 81
2020-03-27 19:00:00 7.6 0 Calma 13 Sur 0 -- -- 69
2020-03-27 18:00:00 8.4 2 Sudeste 30 Este 0 -- -- 67
2020-03-27 17:00:00 9.5 2 Sudeste 17 Nordeste 0 -- -- 61
2020-03-27 16:00:00 10 4 Este 18 Nordeste 0 -- -- 56
2020-03-27 15:00:00 10.9 3 Sudeste 16 Sudoeste 0 -- -- 59
2020-03-27 14:00:00 10 4 Este 15 Sudoeste 0 -- -- 55
2020-03-27 13:00:00 10.9 3 Sudoeste 21 Sudoeste 0 -- -- 51
2020-03-27 12:00:00 10 2 Sur 18 Este 0 -- -- 58
2020-03-27 11:00:00 8.8 2 Sudeste 16 Este 0 -- -- 65
2020-03-27 10:00:00 8.5 0 Calma 18 Sudoeste 0 -- -- 67
2020-03-27 09:00:00 7.3 0 Calma 8 Sur 0 -- -- 81
2020-03-27 08:00:00 1.9 0 Calma -- -- 0 -- -- 96
2020-03-27 07:00:00 0 0 Calma -- -- 0 -- -- 95
2020-03-27 06:00:00 0.8 0 Calma -- -- 0 -- -- 96
2020-03-27 05:00:00 1.2 0 Calma -- -- 0 -- -- 95
2020-03-27 04:00:00 1.9 0 Calma 6 Este 0 -- -- 95
2020-03-27 03:00:00 2.7 0 Calma 13 Sudeste 0 -- -- 95
2020-03-27 02:00:00 3.5 0 Calma 14 Sudoeste 0 -- -- 94
2020-03-27 01:00:00 4.3 0 Calma 18 Este 0 -- -- 91
2020-03-27 00:00:00 5.1 2 Sudeste 16 Sur 0.4 -- -- 92
2020-03-26 23:00:00 5.3 4 Sudeste 23 Este 3.2 -- -- 91
2020-03-26 22:00:00 5 0 Calma 17 Este 1.1 -- -- 94
2020-03-26 21:00:00 4.9 0 Calma 12 Oeste 1.7 -- -- 96
2020-03-26 20:00:00 5.1 0 Calma 10 Noroeste 2.6 -- -- 93
2020-03-26 19:00:00 5.4 0 Calma 9 Oeste 0 -- -- 93
2020-03-26 18:00:00 5.6 2 Sur 13 Sudeste 0 -- -- 91
2020-03-26 17:00:00 5.3 4 Sudeste 21 Sur 0.2 -- -- 87
2020-03-26 16:00:00 5 7 Sudeste 22 Sur 0.6 -- -- 90
2020-03-26 15:00:00 5.9 5 Sudeste 14 Sur 0.3 -- -- 89
2020-03-26 14:00:00 6.4 0 Calma 9 Sudoeste 0.4 -- -- 92
2020-03-26 13:00:00 5.7 2 Sudoeste 10 Sudoeste 2 -- -- 89
2020-03-26 12:00:00 5.1 2 Sudoeste 19 Nordeste 4.7 -- -- 94
2020-03-26 11:00:00 7.8 0 Calma 13 Sur 0 -- -- 81
2020-03-26 10:00:00 8 0 Calma 10 Sudeste 0 -- -- 76
2020-03-26 09:00:00 7.2 0 Calma -- -- 0 -- -- 78
2020-03-26 08:00:00 4.6 0 Calma -- -- 0 -- -- 89
2020-03-26 07:00:00 3.1 0 Calma 5 Sudoeste 0 -- -- 90
2020-03-26 06:00:00 2.8 0 Calma 5 Sur 0 -- -- 86
2020-03-26 05:00:00 4.4 0 Calma -- -- 0 -- -- 79
2020-03-26 04:00:00 5.7 2 Noroeste 29 Sudoeste 0 -- -- 71
2020-03-26 03:00:00 4.9 0 Calma 8 Nordeste 0 -- -- 71
2020-03-26 02:00:00 4.4 0 Calma 8 Sur 0 -- -- 74
2020-03-26 01:00:00 5.6 3 Sur 12 Sur 0 -- -- 67
2020-03-26 00:00:00 4.9 3 Sur 14 Sur 0 -- -- 71
2020-03-25 23:00:00 3.3 0 Calma 5 Este 0 -- -- 82
2020-03-25 22:00:00 2.8 0 Calma -- -- 0 -- -- 82
2020-03-25 21:00:00 3.6 0 Calma 2 Este 0 -- -- 78
2020-03-25 20:00:00 4.6 0 Calma 8 Sudoeste 0 -- -- 73
2020-03-25 19:00:00 6.5 0 Calma 11 Sur 0 -- -- 65
2020-03-25 18:00:00 8 0 Calma 16 Nordeste 0 -- -- 55
2020-03-25 17:00:00 8 0 Calma 25 Este 0 -- -- 55
2020-03-25 16:00:00 9.1 4 Nordeste 24 Este 0 -- -- 45
2020-03-25 15:00:00 8.6 0 Calma 21 Nordeste 0 -- -- 49
2020-03-25 14:00:00 9.7 4 Nordeste 22 Este 0 -- -- 45
2020-03-25 13:00:00 10 5 Nordeste 24 Nordeste 0 -- -- 47
2020-03-25 12:00:00 9.8 8 Nordeste 24 Este 0 -- -- 48
2020-03-25 11:00:00 9.5 3 Nordeste 18 Norte 0 -- -- 50
2020-03-25 10:00:00 8.4 3 Nordeste 21 Nordeste 0 -- -- 60
2020-03-25 09:00:00 5.6 5 Sudeste 20 Este 0 -- -- 73
2020-03-25 08:00:00 5.9 4 Sudeste 22 Sudeste 0 -- -- 76
2020-03-25 07:00:00 5.4 0 Calma 9 Sudoeste 0 -- -- 71
2020-03-25 06:00:00 5.8 0 Calma 15 Sudoeste 0 -- -- 70
2020-03-25 05:00:00 6 2 Este 17 Norte 0 -- -- 65
2020-03-25 04:00:00 6.5 3 Sur 21 Sudeste 0 -- -- 67
2020-03-25 03:00:00 6.7 0 Calma 16 Sudeste 0 -- -- 76
2020-03-25 02:00:00 6.9 3 Este 17 Este 0 -- -- 75
2020-03-25 01:00:00 6.9 2 Sudeste 14 Sudeste 0 -- -- 77
2020-03-25 00:00:00 7 0 Calma 18 Sudeste 0.1 -- -- 81
2020-03-24 23:00:00 7.8 0 Calma 17 Sudeste 0 -- -- 71
2020-03-24 22:00:00 7.9 2 Este 19 Este 0 -- -- 73
2020-03-24 21:00:00 8.1 3 Sudeste 21 Este 0 -- -- 72
2020-03-24 20:00:00 8.2 0 Calma 25 Sudeste 0 -- -- 70
2020-03-24 19:00:00 8.3 3 Sur 27 Este 0 -- -- 66
2020-03-24 18:00:00 8.7 6 Sudeste 24 Este 0 -- -- 67
2020-03-24 17:00:00 9.1 8 Sudeste 36 Este 0 -- -- 66
2020-03-24 16:00:00 9.9 5 Este 25 Sudeste 0 -- -- 67
2020-03-24 15:00:00 9.5 4 Sur 22 Sur 0 -- -- 82
2020-03-24 14:00:00 10.4 6 Sur 23 Este 0 -- -- 81
2020-03-24 13:00:00 10.7 0 Calma 24 Este 0 -- -- 80
2020-03-24 12:00:00 10.7 2 Este 21 Este 0 -- -- 82
2020-03-24 11:00:00 10.4 4 Sudeste 26 Sur 0 -- -- 80
2020-03-24 10:00:00 10.2 6 Este 31 Este 0 -- -- 78
2020-03-24 09:00:00 10.1 4 Este 23 Nordeste 0 -- -- 80
2020-03-24 08:00:00 10 3 Este 28 Sur 0 -- -- 79
2020-03-24 07:00:00 9.8 4 Este 27 Sur 0 -- -- 82
2020-03-24 06:00:00 10 6 Sur 30 Sur 0 -- -- 88
2020-03-24 05:00:00 10.2 10 Sudeste 30 Sur 0 -- -- 85
2020-03-24 04:00:00 10.5 8 Sur 31 Sur 0 -- -- 86
2020-03-24 03:00:00 10.7 6 Sur 31 Sur 0 -- -- 87
2020-03-24 02:00:00 10.9 8 Sur 27 Sudeste 0 -- -- 86
2020-03-24 01:00:00 11.1 6 Sudeste 27 Sudeste 0 -- -- 87
2020-03-24 00:00:00 10.8 6 Sudeste 25 Sur 0 -- -- 85
2020-03-23 23:00:00 10.4 7 Sudeste 27 Sudeste 0 -- -- 84
2020-03-23 22:00:00 10.8 8 Sudeste 30 Sur 0 -- -- 83
2020-03-23 21:00:00 11.2 9 Sur 30 Sur 0 -- -- 84
2020-03-23 20:00:00 11.3 6 Sur 18 Sudoeste 0 -- -- 86
2020-03-23 19:00:00 11.8 5 Sur 23 Sudoeste 0 -- -- 84
2020-03-23 18:00:00 12.4 4 Sudeste 21 Sur 0 -- -- 82
2020-03-23 17:00:00 13 5 Sudeste 20 Sudeste 0 -- -- 78
2020-03-23 16:00:00 13.9 6 Este 27 Sur 0 -- -- 70
2020-03-23 15:00:00 14.1 6 Sudeste 23 Este 0 -- -- 73
2020-03-23 14:00:00 15.8 5 Sudeste 24 Sudoeste 0 -- -- 69
2020-03-23 13:00:00 14.1 5 Sudeste 21 Sudeste 0 -- -- 71
2020-03-23 12:00:00 15.5 6 Sudeste 20 Sur 0 -- -- 68
2020-03-23 11:00:00 15 6 Sudeste 21 Sur 0 -- -- 67
2020-03-23 10:00:00 12.1 8 Sudeste 19 Sur 0 -- -- 86
2020-03-23 09:00:00 11.3 5 Sudeste 16 Sur 0 -- -- 90
2020-03-23 08:00:00 10.5 5 Sudeste 16 Sur 0 -- -- 91
2020-03-23 07:00:00 10 3 Sudeste 14 Este 0 -- -- 92
2020-03-23 06:00:00 10.2 4 Sudeste 14 Sur 0 -- -- 92
2020-03-23 05:00:00 10.2 5 Sudeste 16 Sur 0 -- -- 91
2020-03-23 04:00:00 10.3 8 Sur 24 Sur 0 -- -- 86
2020-03-23 03:00:00 10.2 8 Sur 22 Sudeste 0 -- -- 89
2020-03-23 02:00:00 10.3 7 Sur 22 Sur 0 -- -- 85
2020-03-23 01:00:00 10.2 6 Sur 25 Sudoeste 0 -- -- 84
2020-03-23 00:00:00 9.7 5 Sur 18 Sur 0 -- -- 87
2020-03-22 23:00:00 10.4 3 Este 11 Sudeste 0 -- -- 91
2020-03-22 22:00:00 10.9 3 Sur 26 Sur 0 -- -- 90
2020-03-22 21:00:00 10.8 6 Sur 19 Sudeste 0.1 -- -- 91
2020-03-22 20:00:00 10.5 0 Calma 13 Sudeste 0 -- -- 91
2020-03-22 19:00:00 10.8 6 Sur 14 Sudeste 0 -- -- 91
2020-03-22 18:00:00 12 0 Calma 7 Sur 0 -- -- 86
2020-03-22 17:00:00 12.8 0 Calma 11 Este 0 -- -- 80
2020-03-22 16:00:00 12.4 4 Sudeste 16 Sudeste 0 -- -- 81
2020-03-22 15:00:00 12.3 6 Sudeste 18 Este 0 -- -- 85
2020-03-22 14:00:00 11.7 0 Calma 10 Sur 1.5 -- -- 93
2020-03-22 13:00:00 11 5 Sudeste 27 Sur 1.5 -- -- 89
2020-03-22 12:00:00 12.4 6 Sudeste 18 Sudeste 0 -- -- 81
2020-03-22 11:00:00 11.9 6 Sur 22 Este 0 -- -- 78
2020-03-22 10:00:00 12.1 5 Este 24 Sur 0 -- -- 84
2020-03-22 09:00:00 11.2 6 Sur 21 Sur 0 -- -- 94
2020-03-22 08:00:00 9.5 0 Calma -- -- 0.1 -- -- 98
2020-03-22 07:00:00 7.9 0 Calma -- -- 0.2 -- -- 97
2020-03-22 06:00:00 6.4 0 Calma -- -- 0 -- -- 95
2020-03-22 05:00:00 6.7 0 Calma -- -- 0 -- -- 94
2020-03-22 04:00:00 7.6 0 Calma -- -- 0 -- -- 95
2020-03-22 03:00:00 8 0 Calma -- -- 0 -- -- 95
2020-03-22 02:00:00 7.8 0 Calma -- -- 0 -- -- 96
2020-03-22 01:00:00 7 0 Calma -- -- 0 -- -- 93
2020-03-22 00:00:00 7.6 0 Calma -- -- 0 -- -- 92
2020-03-21 23:00:00 8.4 0 Calma -- -- 0 -- -- 91
2020-03-21 22:00:00 9.3 0 Calma 10 Sudoeste 0 -- -- 91
2020-03-21 21:00:00 10.2 0 Calma 8 Sur 0 -- -- 90
2020-03-21 20:00:00 11 0 Calma 9 Sur 0 -- -- 87
2020-03-21 19:00:00 11.6 0 Calma 14 Sur 0 -- -- 84
2020-03-21 18:00:00 12.4 3 Sur 14 Sur 0 -- -- 78
2020-03-21 17:00:00 13.2 3 Sur 20 Este 0 -- -- 75
2020-03-21 16:00:00 13.8 6 Este 15 Sudeste 0 -- -- 74
2020-03-21 15:00:00 14.2 0 Calma 9 Nordeste 0 -- -- 73
2020-03-21 14:00:00 13.2 0 Calma 13 Sur 0 -- -- 78
2020-03-21 13:00:00 13 2 Sudeste 15 Sur 0 -- -- 78
2020-03-21 12:00:00 13 3 Este 13 Nordeste 0 -- -- 73
2020-03-21 11:00:00 12.5 4 Sudeste 13 Sudeste 0 -- -- 79
2020-03-21 10:00:00 12.1 0 Calma 11 Este 0 -- -- 83
2020-03-21 09:00:00 11.9 0 Calma -- -- 0 -- -- 82
2020-03-21 08:00:00 10.5 0 Calma 10 Noroeste 0 -- -- 90
2020-03-21 07:00:00 9.5 0 Calma 6 Nordeste 0 -- -- 91
2020-03-21 06:00:00 9.7 0 Calma 4 Sudeste 0 -- -- 88
2020-03-21 05:00:00 9.8 0 Calma 10 Sudoeste 0 -- -- 87
2020-03-21 04:00:00 10.2 2 Sur 15 Sudoeste 0 -- -- 85
2020-03-21 03:00:00 10.4 5 Sur 17 Sur 0 -- -- 85
2020-03-21 02:00:00 10.3 5 Sur 17 Sur 0 -- -- 85
2020-03-21 01:00:00 10.4 3 Sur 26 Sudoeste 0 -- -- 84
2020-03-21 00:00:00 10.4 6 Sur 28 Sur 0 -- -- 84
2020-03-20 23:00:00 10.3 9 Sur 31 Sur 0 -- -- 85
2020-03-20 22:00:00 10.5 6 Sur 21 Sur 0 -- -- 85
2020-03-20 21:00:00 10.8 5 Sur 20 Sur 0 -- -- 84
2020-03-20 20:00:00 11.3 4 Sur 15 Sudoeste 0 -- -- 85
2020-03-20 19:00:00 11.6 2 Sudeste 14 Sudeste 0 -- -- 84
2020-03-20 18:00:00 12 4 Este 12 Sudeste 0 -- -- 80
2020-03-20 17:00:00 12.5 3 Sudeste 18 Este 0 -- -- 77
2020-03-20 16:00:00 12.8 2 Este 19 Este 0 -- -- 73
2020-03-20 15:00:00 13.4 5 Este 23 Este 0 -- -- 68
2020-03-20 14:00:00 14.6 5 Este 25 Este 0 -- -- 64
2020-03-20 13:00:00 13.7 10 Este 27 Sur 0 -- -- 61
2020-03-20 12:00:00 13.3 8 Sudeste 28 Sur 0 -- -- 63
2020-03-20 11:00:00 13.4 7 Sudeste 22 Sudeste 0 -- -- 70
2020-03-20 10:00:00 11.1 5 Este 18 Sudeste 0 -- -- 84
2020-03-20 09:00:00 10.9 8 Sudeste 22 Sudeste 0 -- -- 81
2020-03-20 08:00:00 10.2 6 Sudeste 21 Sur 0 -- -- 87
2020-03-20 07:00:00 9.7 6 Sur 26 Sur 0 -- -- 88
2020-03-20 06:00:00 9.5 4 Sudeste 17 Sur 0 -- -- 89
2020-03-20 05:00:00 9.3 6 Sur 17 Sudeste 0 -- -- 87
2020-03-20 04:00:00 9.4 4 Sudeste 17 Sudeste 0 -- -- 89
2020-03-20 03:00:00 9.4 4 Sudeste 14 Sudeste 0 -- -- 87
2020-03-20 02:00:00 9.7 4 Sudeste 18 Sudeste 0 -- -- 84
2020-03-20 01:00:00 9.7 5 Sudeste 18 Sudeste 0 -- -- 87
2020-03-20 00:00:00 9.9 6 Este 19 Sudeste 0 -- -- 85
2020-03-19 23:00:00 10 3 Sur 16 Sur 0 -- -- 87
2020-03-19 22:00:00 10.2 4 Sudeste 15 Sur 0 -- -- 88
2020-03-19 21:00:00 10.1 4 Sudeste 16 Sur 0 -- -- 88
2020-03-19 20:00:00 9.2 2 Sudeste 13 Sur 0 -- -- 87
2020-03-19 19:00:00 10.3 2 Sur 14 Sur 0 -- -- 83
2020-03-19 18:00:00 11.7 5 Sudeste 16 Este 0 -- -- 78
2020-03-19 17:00:00 12.6 2 Sudeste 17 Sudeste 0 -- -- 73
2020-03-19 16:00:00 13.9 4 Sudeste 16 Sudeste 0 -- -- 66
2020-03-19 15:00:00 14.5 5 Sudeste 18 Sudeste 0 -- -- 65
2020-03-19 14:00:00 14.7 4 Sur 15 Sudeste 0 -- -- 53
2020-03-19 13:00:00 15 3 Sudeste 16 Sudoeste 0 -- -- 60
2020-03-19 12:00:00 13.4 3 Sudeste 15 Sur 0 -- -- 69
2020-03-19 11:00:00 14.6 4 Sudeste 15 Sur 0 -- -- 64
2020-03-19 10:00:00 11.5 0 Calma 11 Sudeste 0 -- -- 83
2020-03-19 09:00:00 10.6 2 Sudeste 12 Sudoeste 0 -- -- 86
2020-03-19 08:00:00 8.6 2 Sur 14 Sudeste 0 -- -- 95
2020-03-19 07:00:00 6.6 0 Calma 6 Este 0 -- -- 95
2020-03-19 06:00:00 6.5 0 Calma 7 Este 0 -- -- 93
2020-03-19 05:00:00 6.3 0 Calma 5 Sudeste 0 -- -- 94
2020-03-19 04:00:00 6.6 0 Calma -- -- 0 -- -- 93
2020-03-19 03:00:00 7.3 0 Calma -- -- 0 -- -- 90
2020-03-19 02:00:00 8.1 0 Calma 5 Este 0 -- -- 89
2020-03-19 01:00:00 9.2 0 Calma 9 Nordeste 0 -- -- 84
2020-03-19 00:00:00 9.6 0 Calma 10 Sudeste 0 -- -- 89
2020-03-18 23:00:00 10.4 2 Este 12 Sur 0 -- -- 87
2020-03-18 22:00:00 10.1 3 Sur 15 Sur 0 -- -- 86
2020-03-18 21:00:00 10.2 3 Sur 12 Sur 0 -- -- 86
2020-03-18 20:00:00 10.8 3 Sur 14 Sur 0 -- -- 86
2020-03-18 19:00:00 11.1 3 Sur 11 Sur 0 -- -- 84
2020-03-18 18:00:00 11.8 3 Sur 14 Sur 0 -- -- 80
2020-03-18 17:00:00 12.7 2 Sudeste 11 Este 0 -- -- 77
2020-03-18 16:00:00 13.4 4 Este 13 Sudeste 0 -- -- 74
2020-03-18 15:00:00 13.9 3 Sudeste 19 Sudeste 0 -- -- 73
2020-03-18 14:00:00 13.6 5 Sudeste 20 Sudeste 0 -- -- 75
2020-03-18 13:00:00 13.4 5 Sudeste 19 Sur 0 -- -- 81
2020-03-18 12:00:00 13.1 2 Sudeste 18 Sur 0 -- -- 79
2020-03-18 11:00:00 12.9 3 Sur 17 Sudeste 0 -- -- 79
2020-03-18 10:00:00 12.2 3 Sur 21 Sur 0 -- -- 80
2020-03-18 09:00:00 11.8 5 Sur 19 Sur 0 -- -- 78
2020-03-18 08:00:00 11.4 5 Sur 20 Sudoeste 0 -- -- 76
2020-03-18 07:00:00 10.9 7 Sudoeste 28 Sudoeste 0 -- -- 82
2020-03-18 06:00:00 10.8 6 Sur 20 Sudoeste 0 -- -- 84
2020-03-18 05:00:00 10.9 3 Sudeste 20 Sur 0 -- -- 79
2020-03-18 04:00:00 10.9 4 Sudoeste 18 Sudoeste 0 -- -- 81
2020-03-18 03:00:00 10.8 4 Sur 22 Sur 0 -- -- 86
2020-03-18 02:00:00 10.7 3 Sur 13 Sudeste 0 -- -- 81
2020-03-18 01:00:00 10.9 2 Oeste 14 Sudeste 0 -- -- 80
2020-03-18 00:00:00 11.3 4 Sudoeste 28 Sudeste 0 -- -- 77
2020-03-17 23:00:00 11.7 9 Sur 32 Sur 0 -- -- 75
2020-03-17 22:00:00 11.5 12 Sur 39 Sur 0 -- -- 83
2020-03-17 21:00:00 11.5 12 Sur 41 Sudeste 0 -- -- 83
2020-03-17 20:00:00 11.5 12 Sudeste 47 Sur 0 -- -- 83
2020-03-17 19:00:00 11.6 17 Sudeste 40 Este 0 -- -- 86
2020-03-17 18:00:00 11.7 18 Sudeste 40 Sudeste 0 -- -- 86
2020-03-17 17:00:00 11.9 15 Sudeste 44 Este 0 -- -- 84
2020-03-17 16:00:00 12.1 14 Este 37 Sudeste 0 -- -- 87
2020-03-17 15:00:00 12.4 13 Este 35 Sudeste 0 -- -- 86
2020-03-17 14:00:00 12.7 13 Sudeste 32 Sudeste 0 -- -- 90
2020-03-17 13:00:00 12.2 12 Este 32 Este 0 -- -- 94
2020-03-17 12:00:00 12.2 10 Este 31 Sudeste 0 -- -- 97
2020-03-17 11:00:00 12.2 9 Sudeste 37 Sudeste 0 -- -- 98
2020-03-17 10:00:00 12.2 13 Este 37 Sudeste 0.1 -- -- 97
2020-03-17 09:00:00 12.2 13 Sudeste 37 Sudeste 0 -- -- 97
2020-03-17 08:00:00 12.2 11 Sudeste 32 Sur 0 -- -- 97
2020-03-17 07:00:00 12.4 9 Sur 29 Sur 0 -- -- 97
2020-03-17 06:00:00 12.4 0 Calma -- -- 0 -- -- 95
2020-03-17 05:00:00 12.7 2 Sudeste 23 Sudeste 0.1 -- -- 95
2020-03-17 04:00:00 12.7 6 Sudeste 19 Sudeste 0 -- -- 94
2020-03-17 03:00:00 12.6 9 Sudeste 24 Sur 0 -- -- 95
2020-03-17 02:00:00 12.5 6 Sur 23 Sudoeste 0 -- -- 94
2020-03-17 01:00:00 12.4 9 Sudeste 24 Sudeste 0 -- -- 94
2020-03-17 00:00:00 12.3 9 Sudeste 27 Sudeste 0 -- -- 96
2020-03-16 23:00:00 12.3 7 Sudeste 26 Sur 0 -- -- 97
2020-03-16 22:00:00 12.3 9 Sudeste 32 Sudeste 0.1 -- -- 97
2020-03-16 21:00:00 12.4 10 Sudeste 32 Sudeste 0 -- -- 97
2020-03-16 20:00:00 12.5 9 Sudeste 31 Sudeste 0 -- -- 95
2020-03-16 19:00:00 12.8 9 Sudeste 28 Sur 0 -- -- 95
2020-03-16 18:00:00 13 10 Sudeste 30 Sudeste 0 -- -- 93
2020-03-16 17:00:00 13.1 10 Sudeste 32 Sudeste 0 -- -- 93
2020-03-16 16:00:00 13 9 Sudeste 32 Sudeste 0 -- -- 95
2020-03-16 15:00:00 12.9 10 Sudeste 41 Sudeste 0 -- -- 95
2020-03-16 14:00:00 12.7 10 Sudeste 41 Este 0 -- -- 96
2020-03-16 13:00:00 12.3 13 Este 36 Sudeste 0 -- -- 97
2020-03-16 12:00:00 12.3 12 Sudeste 35 Sudeste 0.4 -- -- 97
2020-03-16 11:00:00 12.4 10 Sudeste 32 Sudeste 0.6 -- -- 96
2020-03-16 10:00:00 12.1 11 Sudeste 39 Sudeste 0 -- -- 96
2020-03-16 09:00:00 11.9 9 Sudeste 31 Sudeste 0.4 -- -- 95
2020-03-16 08:00:00 11.2 10 Sudeste 30 Sudeste 1.1 -- -- 95
2020-03-16 07:00:00 11.1 10 Sudeste 32 Sur 0 -- -- 92
2020-03-16 06:00:00 11 13 Sudeste 34 Sudeste 0 -- -- 90
2020-03-16 05:00:00 10.7 9 Sudeste 31 Sudeste 0 -- -- 86
2020-03-16 04:00:00 10.7 9 Sudeste 31 Sudeste 0 -- -- 75
2020-03-16 03:00:00 11 9 Sudeste 23 Este 0 -- -- 53
2020-03-16 02:00:00 10.8 6 Este 23 Sudeste 0 -- -- 48
2020-03-16 01:00:00 10.8 10 Sudeste 25 Sur 0 -- -- 56
2020-03-16 00:00:00 10.8 9 Sudeste 32 Sudoeste 0 -- -- 68
2020-03-15 23:00:00 11.1 11 Sur 32 Sudoeste 0 -- -- 71
2020-03-15 22:00:00 11.2 7 Sur 27 Sur 0 -- -- 71
2020-03-15 21:00:00 10.6 4 Sudeste 18 Sudeste 0 -- -- 73
2020-03-15 20:00:00 11 6 Sur 22 Sur 0 -- -- 81
2020-03-15 19:00:00 11.8 6 Sudeste 23 Sudeste 0 -- -- 77
2020-03-15 18:00:00 13.5 7 Sudeste 21 Sudeste 0 -- -- 73
2020-03-15 17:00:00 14.6 5 Sudeste 17 Sudeste 0 -- -- 71
2020-03-15 16:00:00 14.8 4 Sudeste 14 Sur 0 -- -- 70
2020-03-15 15:00:00 14.9 4 Sudeste 17 Sudeste 0 -- -- 69
2020-03-15 14:00:00 16.2 6 Sudeste 18 Sur 0 -- -- 63
2020-03-15 13:00:00 16.2 4 Sudeste 19 Sudoeste 0 -- -- 62
2020-03-15 12:00:00 16.8 7 Sudeste 20 Sudeste 0 -- -- 61
2020-03-15 11:00:00 16 6 Sudeste 22 Este 0 -- -- 62
2020-03-15 10:00:00 14.5 8 Este 21 Sudeste 0 -- -- 55
2020-03-15 09:00:00 11.7 0 Calma 12 Sur 0 -- -- 73
2020-03-15 08:00:00 4.8 0 Calma -- -- 0 -- -- 97
2020-03-15 07:00:00 3.5 0 Calma -- -- 0 -- -- 96
2020-03-15 06:00:00 3.4 0 Calma -- -- 0 -- -- 96
2020-03-15 05:00:00 3.6 0 Calma -- -- 0 -- -- 95
2020-03-15 04:00:00 4 0 Calma -- -- 0 -- -- 95
2020-03-15 03:00:00 4.4 0 Calma -- -- 0 -- -- 94
2020-03-15 02:00:00 5 0 Calma -- -- 0 -- -- 94
2020-03-15 01:00:00 5.8 0 Calma -- -- 0 -- -- 91
2020-03-15 00:00:00 6.8 0 Calma -- -- 0 -- -- 92
2020-03-14 23:00:00 7.9 0 Calma -- -- 0 -- -- 91
2020-03-14 22:00:00 9.5 0 Calma 13 Este 0 -- -- 92
2020-03-14 21:00:00 9.6 0 Calma 5 Este 0 -- -- 93
2020-03-14 20:00:00 10.2 0 Calma -- -- 0 -- -- 87
2020-03-14 19:00:00 -- 0 Calma 11 Sudeste 0 -- -- --
2020-03-14 18:00:00 13.2 0 Calma 11 Sur 0 -- -- 79
2020-03-14 17:00:00 15.2 0 Calma 14 Sudoeste 0 -- -- 64
2020-03-14 16:00:00 15.3 0 Calma 13 Sur 0 -- -- 64
2020-03-14 15:00:00 16.5 3 Sudoeste 14 Sur 0 -- -- 64
2020-03-14 14:00:00 16.3 3 Sur 14 Sudoeste 0 -- -- 66
2020-03-14 13:00:00 17.2 3 Sur 15 Sudeste 0 -- -- 63
2020-03-14 12:00:00 16.1 3 Sudeste 13 Sudoeste 0 -- -- 61
2020-03-14 11:00:00 14.4 3 Sudeste 15 Sur 0 -- -- 64
2020-03-14 10:00:00 13.5 4 Este 13 Este 0 -- -- 74
2020-03-14 09:00:00 10.9 0 Calma -- -- 0 -- -- 94
2020-03-14 08:00:00 8.1 0 Calma -- -- 0 -- -- 95
2020-03-14 07:00:00 7.4 0 Calma -- -- 0 -- -- 94
2020-03-14 06:00:00 8.2 0 Calma -- -- 0 -- -- 94
2020-03-14 05:00:00 8.3 0 Calma -- -- 0 -- -- 93
2020-03-14 04:00:00 9 0 Calma 12 Sudeste 0 -- -- 93
2020-03-14 03:00:00 9.3 0 Calma 21 Sudoeste 1.2 -- -- 90
2020-03-14 02:00:00 8.5 0 Calma -- -- 0.2 -- -- 89
2020-03-14 01:00:00 7.7 0 Calma -- -- 0 -- -- 79
2020-03-14 00:00:00 7.6 0 Calma -- -- 0 -- -- 78
2020-03-13 23:00:00 7.6 0 Calma -- -- 0 -- -- 75
2020-03-13 22:00:00 8.1 0 Calma -- -- 0 -- -- 74
2020-03-13 21:00:00 9.1 0 Calma -- -- 0 -- -- 73
2020-03-13 20:00:00 10.7 0 Calma 12 Sudoeste 0 -- -- 70
2020-03-13 19:00:00 12.7 3 Sudoeste 13 Oeste 0 -- -- 55
2020-03-13 18:00:00 14.3 4 Oeste 12 Oeste 0 -- -- 48
2020-03-13 17:00:00 15.6 3 Sudoeste 20 Sur 0 -- -- 51
2020-03-13 16:00:00 16.1 0 Calma 18 Sur 0 -- -- 54
2020-03-13 15:00:00 17.2 5 Sur 17 Sur 0 -- -- 54
2020-03-13 14:00:00 17 2 Sur 17 Sudeste 0 -- -- 54
2020-03-13 13:00:00 16.9 2 Este 21 Nordeste 0 -- -- 57
2020-03-13 12:00:00 16.9 0 Calma 23 Nordeste 0 -- -- 61
2020-03-13 11:00:00 16.3 4 Norte 24 Este 0 -- -- 58
2020-03-13 10:00:00 16.3 2 Sudeste 18 Sudeste 0 -- -- 58
2020-03-13 09:00:00 13.5 3 Sur 14 Sudoeste 0 -- -- 71
2020-03-13 08:00:00 9.7 0 Calma 18 Sur 0 -- -- 80
2020-03-13 07:00:00 8.9 0 Calma 15 Sur 0 -- -- 76
2020-03-13 06:00:00 11.4 2 Sur 22 Sudeste 0 -- -- 72
2020-03-13 05:00:00 9 5 Sur 22 Sur 0 -- -- 68
2020-03-13 04:00:00 9 0 Calma 8 Sudeste 0 -- -- 66
2020-03-13 03:00:00 6.8 0 Calma -- -- 0 -- -- 84
2020-03-13 02:00:00 7.1 0 Calma -- -- 0 -- -- 82
2020-03-13 01:00:00 7.5 0 Calma -- -- 0 -- -- 80
2020-03-13 00:00:00 8.3 0 Calma -- -- 0 -- -- 76
2020-03-12 23:00:00 9.2 0 Calma -- -- 0 -- -- 72
2020-03-12 22:00:00 10.1 0 Calma -- -- 0 -- -- 68
2020-03-12 21:00:00 11.5 0 Calma -- -- 0 -- -- 64
2020-03-12 20:00:00 13.6 0 Calma -- -- 0 -- -- 57
2020-03-12 19:00:00 17.1 0 Calma 15 Sudeste 0 -- -- 42
2020-03-12 18:00:00 19 2 Sudeste 15 Sur 0 -- -- 40
2020-03-12 17:00:00 20.8 2 Sudeste 22 Sur 0 -- -- 36
2020-03-12 16:00:00 22 6 Sudeste 22 Sudeste 0 -- -- 34
2020-03-12 15:00:00 23.1 5 Sudeste 16 Sudeste 0 -- -- 34
2020-03-12 14:00:00 23.4 5 Este 17 Sudeste 0 -- -- 35
2020-03-12 13:00:00 23.7 6 Sudeste 17 Sudeste 0 -- -- 34
2020-03-12 12:00:00 23.9 0 Calma 10 Noroeste 0 -- -- 38
2020-03-12 11:00:00 23.7 0 Calma 21 Sur 0 -- -- 35
2020-03-12 10:00:00 19 0 Calma -- -- 0 -- -- 52
2020-03-12 09:00:00 11.8 0 Calma -- -- 0 -- -- 77
2020-03-12 08:00:00 5.9 0 Calma -- -- 0 -- -- 91
2020-03-12 07:00:00 5.3 0 Calma -- -- 0 -- -- 92
2020-03-12 06:00:00 5.5 0 Calma -- -- 0 -- -- 91
2020-03-12 05:00:00 5.6 0 Calma -- -- 0 -- -- 90
2020-03-12 04:00:00 5.9 0 Calma -- -- 0 -- -- 90
2020-03-12 03:00:00 6.1 0 Calma -- -- 0 -- -- 90
2020-03-12 02:00:00 6.1 0 Calma -- -- 0 -- -- 89
2020-03-12 01:00:00 6.3 0 Calma -- -- 0 -- -- 86
2020-03-12 00:00:00 6.8 0 Calma -- -- 0 -- -- 84
2020-03-11 23:00:00 7.2 0 Calma -- -- 0 -- -- 83
2020-03-11 22:00:00 8.1 0 Calma -- -- 0 -- -- 80
2020-03-11 21:00:00 9.4 0 Calma -- -- 0 -- -- 77
2020-03-11 20:00:00 11.2 0 Calma -- -- 0 -- -- 73
2020-03-11 19:00:00 13.4 0 Calma -- -- 0 -- -- 66
2020-03-11 18:00:00 16.4 0 Calma 13 Sudoeste 0 -- -- 55
2020-03-11 17:00:00 19 0 Calma 12 Oeste 0 -- -- 48
2020-03-11 16:00:00 20.2 0 Calma 11 Oeste 0 -- -- 41
2020-03-11 15:00:00 20.5 0 Calma 12 Sur 0 -- -- 42
2020-03-11 14:00:00 20.9 2 Sudoeste 11 Sudoeste 0 -- -- 39
2020-03-11 13:00:00 21.3 2 Sur 13 Sur 0 -- -- 37
2020-03-11 12:00:00 20.6 0 Calma 10 Sur 0 -- -- 41
2020-03-11 11:00:00 20.2 0 Calma 9 Noroeste 0 -- -- 39
2020-03-11 10:00:00 17.7 0 Calma 8 Noroeste 0 -- -- 41
2020-03-11 09:00:00 11.5 0 Calma 4 Sudeste 0 -- -- 74
2020-03-11 08:00:00 4.5 0 Calma -- -- 0 -- -- 92
2020-03-11 07:00:00 4.3 0 Calma -- -- 0 -- -- 91
2020-03-11 06:00:00 4.2 0 Calma -- -- 0 -- -- 90
2020-03-11 05:00:00 4.3 0 Calma -- -- 0 -- -- 88
2020-03-11 04:00:00 4.8 0 Calma -- -- 0 -- -- 85
2020-03-11 03:00:00 5.2 0 Calma -- -- 0 -- -- 82
2020-03-11 02:00:00 5.7 0 Calma -- -- 0 -- -- 80
2020-03-11 01:00:00 5.8 0 Calma -- -- 0 -- -- 78
2020-03-11 00:00:00 6.4 0 Calma -- -- 0 -- -- 75
2020-03-10 23:00:00 7.4 0 Calma -- -- 0 -- -- 71
2020-03-10 22:00:00 8.5 0 Calma -- -- 0 -- -- 66
2020-03-10 21:00:00 10 0 Calma -- -- 0 -- -- 59
2020-03-10 20:00:00 11 0 Calma 8 Sur 0 -- -- 56
2020-03-10 19:00:00 11.6 0 Calma 5 Sur 0 -- -- 67
2020-03-10 18:00:00 13.9 0 Calma 6 Sur 0 -- -- 53
2020-03-10 17:00:00 14.5 0 Calma 10 Sudeste 0 -- -- 51
2020-03-10 16:00:00 15.4 0 Calma 16 Sur 0 -- -- 52
2020-03-10 15:00:00 15.1 0 Calma 14 Este 0 -- -- 46
2020-03-10 14:00:00 14.6 4 Este 18 Este 0 -- -- 44
2020-03-10 13:00:00 14.2 3 Sudeste 18 Este 0 -- -- 44
2020-03-10 12:00:00 14 6 Este 19 Este 0 -- -- 52
2020-03-10 11:00:00 13.7 2 Sudeste 12 Nordeste 0 -- -- 55
2020-03-10 10:00:00 11.6 0 Calma 9 Este 0 -- -- 67
2020-03-10 09:00:00 10.2 0 Calma 4 Sudoeste 0 -- -- 79
2020-03-10 08:00:00 9.3 0 Calma -- -- 0 -- -- 83
2020-03-10 07:00:00 8.5 0 Calma -- -- 0 -- -- 86
2020-03-10 06:00:00 8.2 0 Calma -- -- 0 -- -- 86
2020-03-10 05:00:00 8.4 0 Calma 5 Oeste 0 -- -- 83
2020-03-10 04:00:00 8.1 0 Calma 9 Norte 0 -- -- 82
2020-03-10 03:00:00 8.1 0 Calma 12 Sudeste 0 -- -- 81
2020-03-10 02:00:00 8.8 0 Calma 12 Sur 0 -- -- 76
2020-03-10 01:00:00 8.9 2 Sudeste 10 Sudoeste 0 -- -- 82
2020-03-10 00:00:00 8.8 3 Sur 16 Sur 0 -- -- 85
2020-03-09 23:00:00 8.8 5 Sur 17 Sur 0 -- -- 87
2020-03-09 22:00:00 9 5 Sudeste 17 Sur 0 -- -- 86
2020-03-09 21:00:00 9.1 3 Sudeste 12 Sur 0 -- -- 74
2020-03-09 20:00:00 8.9 0 Calma 9 Sudeste 0 -- -- 72
2020-03-09 19:00:00 9.5 0 Calma 11 Sudeste 0 -- -- 68
2020-03-09 18:00:00 10.1 0 Calma 23 Sur 0 -- -- 62
2020-03-09 17:00:00 11 3 Sur 22 Sur 0 -- -- 62
2020-03-09 16:00:00 11.4 5 Sudeste 22 Sudeste 0 -- -- 67
2020-03-09 15:00:00 11.7 3 Sur 25 Este 0 -- -- 65
2020-03-09 14:00:00 11.6 3 Sur 21 Sudeste 0 -- -- 69
2020-03-09 13:00:00 11.1 4 Sudeste 19 Sudeste 0 -- -- 67
2020-03-09 12:00:00 12.2 3 Sur 28 Sudeste 0 -- -- 68
2020-03-09 11:00:00 12.7 4 Sudeste 33 Sudeste 0 -- -- 66
2020-03-09 10:00:00 12.8 8 Sudeste 28 Sur 0 -- -- 62
2020-03-09 09:00:00 11.4 6 Sudeste 31 Sur 0 -- -- 71
2020-03-09 08:00:00 11.3 8 Sudeste 48 Sudeste 0 -- -- 66
2020-03-09 07:00:00 11.3 6 Sudeste 33 Sudeste 0 -- -- 69
2020-03-09 06:00:00 8 3 Sur 18 Sudeste 0 -- -- 79
2020-03-09 05:00:00 3.7 0 Calma -- -- 0 -- -- 89
2020-03-09 04:00:00 4.5 0 Calma 0 Calma 0 -- -- 87
2020-03-09 03:00:00 4.4 0 Calma -- -- 0 -- -- 86
2020-03-09 02:00:00 5 0 Calma -- -- 0 -- -- 83
2020-03-09 01:00:00 5.9 0 Calma -- -- 0 -- -- 81
2020-03-09 00:00:00 6.1 0 Calma -- -- 0 -- -- 80
2020-03-08 23:00:00 6.5 0 Calma -- -- 0 -- -- 78
2020-03-08 22:00:00 6.5 0 Calma -- -- 0 -- -- 77
2020-03-08 21:00:00 6.5 0 Calma 5 Sudeste 0 -- -- 78
2020-03-08 20:00:00 7.8 0 Calma 3 Sudeste 0 -- -- 75
2020-03-08 19:00:00 9.4 0 Calma 4 Sur 0 -- -- 72
2020-03-08 18:00:00 11.5 0 Calma 10 Sudoeste 0 -- -- 66
2020-03-08 17:00:00 13.8 2 Sudoeste 14 Sudoeste 0 -- -- 54
2020-03-08 16:00:00 15 4 Sur 14 Sur 0 -- -- 44
2020-03-08 15:00:00 15.7 4 Sudeste 17 Sudeste 0 -- -- 43
2020-03-08 14:00:00 15.9 0 Calma 21 Este 0 -- -- 45
2020-03-08 13:00:00 15.4 4 Sur 17 Sudeste 0 -- -- 49
2020-03-08 12:00:00 16.1 4 Sur 22 Sur 0 -- -- 47
2020-03-08 11:00:00 14.3 0 Calma 14 Este 0 -- -- 56
2020-03-08 10:00:00 12.1 3 Este 26 Este 0 -- -- 59
2020-03-08 09:00:00 11.1 4 Sudeste 18 Este 0 -- -- 63
2020-03-08 08:00:00 4.7 0 Calma -- -- 0 -- -- 93
2020-03-08 07:00:00 4.6 0 Calma 6 Oeste 0 -- -- 90
2020-03-08 06:00:00 5.6 0 Calma -- -- 0 -- -- 84
2020-03-08 05:00:00 7.1 0 Calma -- -- 0 -- -- 80
2020-03-08 04:00:00 7.1 0 Calma -- -- 0 -- -- 79
2020-03-08 03:00:00 6.3 0 Calma -- -- 0 -- -- 81
2020-03-08 02:00:00 5.4 0 Calma -- -- 0 -- -- 81
2020-03-08 01:00:00 4.1 0 Calma -- -- 0 -- -- 78
2020-03-08 00:00:00 3.1 0 Calma -- -- 0 -- -- 72
2020-03-07 23:00:00 3.4 0 Calma -- -- 0 -- -- 70
2020-03-07 22:00:00 2.4 0 Calma -- -- 0 -- -- 71
2020-03-07 21:00:00 2.8 0 Calma -- -- 0 -- -- 67
2020-03-07 20:00:00 4 0 Calma -- -- 0 -- -- 64
2020-03-07 19:00:00 6.4 0 Calma -- -- 0 -- -- 57
2020-03-07 18:00:00 8.2 0 Calma 13 Oeste 0 -- -- 48
2020-03-07 17:00:00 10.7 3 Sur 13 Sudeste 0 -- -- 38
2020-03-07 16:00:00 11.2 3 Sudeste 27 Sur 0 -- -- 44
2020-03-07 15:00:00 11.7 6 Sur 26 Sudoeste 0 -- -- 56
2020-03-07 14:00:00 11.8 4 Sur 17 Sur 0 -- -- 59
2020-03-07 13:00:00 11.2 4 Sur 21 Sudeste 0 -- -- 56
2020-03-07 12:00:00 11.8 5 Sudeste 22 Sudeste 0 -- -- 62
2020-03-07 11:00:00 11.5 4 Sur 24 Sudeste 0 -- -- 58
2020-03-07 10:00:00 10.5 6 Sudeste 21 Sudeste 0 -- -- 65
2020-03-07 09:00:00 7.7 2 Sudeste 16 Sudeste 0 -- -- 75
2020-03-07 08:00:00 7.4 3 Sudeste 19 Sudoeste 0 -- -- 75
2020-03-07 07:00:00 7.1 5 Sur 24 Sudeste 0 -- -- 74
2020-03-07 06:00:00 7.2 8 Sudeste 28 Sudeste 0 -- -- 73
2020-03-07 05:00:00 7 6 Sudeste 27 Este 0 -- -- 73
2020-03-07 04:00:00 7.1 6 Sudeste 32 Sudeste 0 -- -- 73
2020-03-07 03:00:00 7.2 5 Sudeste 37 Sudeste 0 -- -- 71
2020-03-07 02:00:00 7.3 7 Sudeste 39 Sudeste 0 -- -- 74
2020-03-07 01:00:00 7.3 8 Sur 41 Sur 0 -- -- 71
2020-03-07 00:00:00 7.3 6 Sur 41 Sudeste 0 -- -- 71
2020-03-06 23:00:00 7.5 7 Sudeste 39 Sudeste 0 -- -- 68
2020-03-06 22:00:00 8 9 Sudeste 51 Sur 0 -- -- 62
2020-03-06 21:00:00 8.7 9 Sur 54 Nordeste 0 -- -- 59
2020-03-06 20:00:00 9 7 Sudeste 53 Sudoeste 0 -- -- 54
2020-03-06 19:00:00 9.4 9 Sur 38 Sur 0 -- -- 56
2020-03-06 18:00:00 9.2 6 Sudeste 38 Sudeste 0 -- -- 53
2020-03-06 17:00:00 9.5 9 Sudeste 38 Sudeste 0 -- -- 60
2020-03-06 16:00:00 9.6 6 Sudeste 34 Sudeste 0 -- -- 61
2020-03-06 15:00:00 11 9 Sur 37 Sur 0 -- -- 53
2020-03-06 14:00:00 11.9 10 Sur 34 Sur 0 -- -- 53
2020-03-06 13:00:00 10.8 6 Sudeste 35 Sur 0.1 -- -- 65
2020-03-06 12:00:00 11.3 8 Sudeste 35 Sudeste 0 -- -- 57
2020-03-06 11:00:00 11.1 9 Sudeste 43 Sudeste 0 -- -- 57
2020-03-06 10:00:00 12.4 7 Sudeste 30 Este 0 -- -- 59
2020-03-06 09:00:00 11.4 5 Sudeste 25 Sudeste 0 -- -- 63
2020-03-06 08:00:00 9.3 3 Sudeste 27 Sur 0 -- -- 66
2020-03-06 07:00:00 9.6 6 Sur 31 Sudeste 0 -- -- 61
2020-03-06 06:00:00 9.2 4 Sur 32 Sur 0.1 -- -- 65
2020-03-06 05:00:00 10.1 3 Sur 29 Oeste 0 -- -- 63
2020-03-06 04:00:00 10.2 5 Sudeste 28 Sur 0 -- -- 59
2020-03-06 03:00:00 10.6 8 Sudeste 33 Sudeste 0 -- -- 55
2020-03-06 02:00:00 11.3 6 Sudeste 36 Sudoeste 0 -- -- 46
2020-03-06 01:00:00 11.7 8 Sur 30 Sur 0 -- -- 48
2020-03-06 00:00:00 12 2 Sur 30 Sudeste 0 -- -- 58
2020-03-05 23:00:00 12.9 5 Sudeste 41 Sur 0 -- -- 55
2020-03-05 22:00:00 13.6 7 Sudeste 30 Sudeste 0 -- -- 53
2020-03-05 21:00:00 14.7 9 Sudeste 37 Sudeste 0 -- -- 45
2020-03-05 20:00:00 14.7 8 Sudeste 41 Sur 0 -- -- 50
2020-03-05 19:00:00 14.7 8 Sur 43 Sudeste 0 -- -- 69
2020-03-05 18:00:00 16.1 6 Sudoeste 43 Sudoeste 0 -- -- 56
2020-03-05 17:00:00 16.2 4 Sudoeste 39 Sudoeste 0 -- -- 56
2020-03-05 16:00:00 16.8 4 Sur 51 Sudoeste 0 -- -- 52
2020-03-05 15:00:00 17.4 3 Sudeste 32 Este 0 -- -- 51
2020-03-05 14:00:00 17.6 8 Oeste 52 Sudoeste 0 -- -- 49
2020-03-05 13:00:00 18.5 6 Sur 32 Sur 0 -- -- 48
2020-03-05 12:00:00 18.5 0 Calma 31 Noroeste 0 -- -- 46
2020-03-05 11:00:00 18.3 15 Oeste 39 Oeste 0 -- -- 44
2020-03-05 10:00:00 17.9 3 Sudoeste 18 Sudoeste 0 -- -- 49
2020-03-05 09:00:00 14.9 0 Calma 5 Este 0 -- -- 61
2020-03-05 08:00:00 10.7 0 Calma -- -- 0 -- -- 76
2020-03-05 07:00:00 14.2 0 Calma 36 Oeste 0 -- -- 59
2020-03-05 06:00:00 13.7 4 Oeste 37 Sudoeste 0 -- -- 61
2020-03-05 05:00:00 11.9 4 Oeste 19 Oeste 0 -- -- 72
2020-03-05 04:00:00 10.3 0 Calma 27 Sudoeste 0 -- -- 83
2020-03-05 03:00:00 7.7 0 Calma 8 Este 0 -- -- 94
2020-03-05 02:00:00 7.8 0 Calma -- -- 0 -- -- 91
2020-03-05 01:00:00 8.5 0 Calma -- -- 0 -- -- 91
2020-03-05 00:00:00 8.8 0 Calma -- -- 0 -- -- 91